createdAt,value
2024-02-26T00:01:47.711Z,6.80
2024-02-26T00:04:15.789Z,6.70
2024-02-26T00:06:43.977Z,6.70
2024-02-26T00:09:12.334Z,6.60
2024-02-26T00:11:40.703Z,6.60
2024-02-26T00:14:10.317Z,6.50
2024-02-26T00:16:38.478Z,6.50
2024-02-26T00:19:06.642Z,6.50
2024-02-26T00:21:34.674Z,6.50
2024-02-26T00:24:02.660Z,6.40
2024-02-26T00:26:30.779Z,6.40
2024-02-26T00:28:58.746Z,6.40
2024-02-26T00:31:28.127Z,6.30
2024-02-26T00:33:56.533Z,6.30
2024-02-26T00:36:24.851Z,6.30
2024-02-26T00:38:52.955Z,6.30
2024-02-26T00:41:21.308Z,6.30
2024-02-26T00:43:49.332Z,6.30
2024-02-26T00:46:17.426Z,6.30
2024-02-26T00:48:48.182Z,6.30
2024-02-26T00:51:16.664Z,6.30
2024-02-26T00:53:45.019Z,6.30
2024-02-26T00:56:13.017Z,6.30
2024-02-26T00:58:41.172Z,6.30
2024-02-26T01:01:09.273Z,6.20
2024-02-26T01:03:37.706Z,6.20
2024-02-26T01:06:07.315Z,6.20
2024-02-26T01:08:36.813Z,6.20
2024-02-26T01:11:05.283Z,6.20
2024-02-26T01:13:33.270Z,6.20
2024-02-26T01:16:01.737Z,6.20
2024-02-26T01:18:29.855Z,6.10
2024-02-26T01:20:58.039Z,6.10
2024-02-26T01:23:27.551Z,6.10
2024-02-26T01:25:55.552Z,6.10
2024-02-26T01:28:23.503Z,6.10
2024-02-26T01:30:51.649Z,6.10
2024-02-26T01:33:19.799Z,6.10
2024-02-26T01:35:47.938Z,6.00
2024-02-26T01:38:16.026Z,6.00
2024-02-26T01:40:45.458Z,6.00
2024-02-26T01:43:13.444Z,6.00
2024-02-26T01:45:41.490Z,6.00
2024-02-26T01:48:11.830Z,6.00
2024-02-26T01:50:40.103Z,6.00
2024-02-26T01:53:09.393Z,5.90
2024-02-26T01:55:37.645Z,5.90
2024-02-26T01:58:08.008Z,5.90
2024-02-26T02:00:36.495Z,5.90
2024-02-26T02:03:05.980Z,5.90
2024-02-26T02:05:35.154Z,5.90
2024-02-26T02:08:05.108Z,5.80
2024-02-26T02:10:33.191Z,5.90
2024-02-26T02:13:01.147Z,5.80
2024-02-26T02:15:30.681Z,5.80
2024-02-26T02:17:58.862Z,5.80
2024-02-26T02:20:34.073Z,5.80
2024-02-26T02:23:02.638Z,5.80
2024-02-26T02:25:30.881Z,5.80
2024-02-26T02:27:59.951Z,5.70
2024-02-26T02:30:30.658Z,5.70
2024-02-26T02:33:00.575Z,5.70
2024-02-26T02:35:30.131Z,5.70
2024-02-26T02:37:59.379Z,5.60
2024-02-26T02:40:27.526Z,5.60
2024-02-26T02:42:55.497Z,5.60
2024-02-26T02:45:23.731Z,5.60
2024-02-26T02:47:51.899Z,5.60
2024-02-26T02:50:20.014Z,5.60
2024-02-26T02:52:51.295Z,5.60
2024-02-26T02:55:20.077Z,5.60
2024-02-26T02:57:48.095Z,5.60
2024-02-26T03:00:16.696Z,5.60
2024-02-26T03:02:46.275Z,5.60
2024-02-26T03:05:14.492Z,5.60
2024-02-26T03:07:42.643Z,5.60
2024-02-26T03:10:13.179Z,5.60
2024-02-26T03:12:41.272Z,5.60
2024-02-26T03:15:09.806Z,5.60
2024-02-26T03:17:38.549Z,5.60
2024-02-26T03:20:09.622Z,5.60
2024-02-26T03:22:37.637Z,5.60
2024-02-26T03:25:06.609Z,5.60
2024-02-26T03:27:36.005Z,5.60
2024-02-26T03:30:04.913Z,5.60
2024-02-26T03:32:33.041Z,5.60
2024-02-26T03:35:01.240Z,5.60
2024-02-26T03:37:29.430Z,5.60
2024-02-26T03:39:58.262Z,5.50
2024-02-26T03:42:26.303Z,5.50
2024-02-26T03:44:55.666Z,5.50
2024-02-26T03:47:23.806Z,5.50
2024-02-26T03:49:51.736Z,5.50
2024-02-26T03:52:19.739Z,5.50
2024-02-26T03:54:47.764Z,5.50
2024-02-26T03:57:15.873Z,5.50
2024-02-26T03:59:44.058Z,5.50
2024-02-26T04:02:13.484Z,5.50
2024-02-26T04:04:41.514Z,5.50
2024-02-26T04:07:09.900Z,5.50
2024-02-26T04:09:38.093Z,5.50
2024-02-26T04:12:06.913Z,5.50
2024-02-26T04:14:35.043Z,5.50
2024-02-26T04:17:03.082Z,5.50
2024-02-26T04:19:32.502Z,5.50
2024-02-26T04:22:01.916Z,5.40
2024-02-26T04:24:30.178Z,5.40
2024-02-26T04:26:58.531Z,5.40
2024-02-26T04:29:26.508Z,5.40
2024-02-26T04:31:54.464Z,5.40
2024-02-26T04:34:22.552Z,5.40
2024-02-26T04:36:52.182Z,5.40
2024-02-26T04:39:19.403Z,5.40
2024-02-26T04:41:48.555Z,5.40
2024-02-26T04:44:16.506Z,5.40
2024-02-26T04:46:44.696Z,5.40
2024-02-26T04:49:12.763Z,5.40
2024-02-26T04:51:41.229Z,5.40
2024-02-26T04:54:10.645Z,5.40
2024-02-26T04:56:38.755Z,5.40
2024-02-26T04:59:06.760Z,5.40
2024-02-26T05:01:34.966Z,5.40
2024-02-26T05:04:03.049Z,5.40
2024-02-26T05:06:31.559Z,5.40
2024-02-26T05:08:59.680Z,5.40
2024-02-26T05:11:29.109Z,5.40
2024-02-26T05:13:57.191Z,5.40
2024-02-26T05:16:25.823Z,5.30
2024-02-26T05:18:54.163Z,5.30
2024-02-26T05:21:22.573Z,5.30
2024-02-26T05:23:50.686Z,5.30
2024-02-26T05:26:22.485Z,5.30
2024-02-26T05:28:52.406Z,5.30
2024-02-26T05:31:20.774Z,5.40
2024-02-26T05:33:49.077Z,5.30
2024-02-26T05:36:22.296Z,5.40
2024-02-26T05:38:50.512Z,5.40
2024-02-26T05:41:23.935Z,5.40
2024-02-26T05:43:53.433Z,5.40
2024-02-26T05:46:22.002Z,5.40
2024-02-26T05:48:52.938Z,5.40
2024-02-26T05:51:21.367Z,5.40
2024-02-26T05:53:55.155Z,5.40
2024-02-26T05:56:23.802Z,5.40
2024-02-26T05:58:53.978Z,5.50
2024-02-26T06:01:22.298Z,5.50
2024-02-26T06:03:50.546Z,5.50
2024-02-26T06:06:19.477Z,5.50
2024-02-26T06:08:47.598Z,5.50
2024-02-26T06:11:17.457Z,5.50
2024-02-26T06:13:45.908Z,5.50
2024-02-26T06:16:15.325Z,5.50
2024-02-26T06:18:43.735Z,5.50
2024-02-26T06:21:12.700Z,5.50
2024-02-26T06:23:41.651Z,5.50
2024-02-26T06:26:11.136Z,5.50
2024-02-26T06:28:41.999Z,5.50
2024-02-26T06:31:10.649Z,5.60
2024-02-26T06:33:40.966Z,5.60
2024-02-26T06:36:09.288Z,5.60
2024-02-26T06:38:37.463Z,5.60
2024-02-26T06:41:05.809Z,5.70
2024-02-26T06:43:35.316Z,5.70
2024-02-26T06:46:03.570Z,5.80
2024-02-26T06:48:31.881Z,5.80
2024-02-26T06:51:01.437Z,5.80
2024-02-26T06:53:31.929Z,5.90
2024-02-26T06:55:59.941Z,6.00
2024-02-26T06:58:27.877Z,6.00
2024-02-26T07:00:55.924Z,6.10
2024-02-26T07:03:25.592Z,6.20
2024-02-26T07:05:53.964Z,6.30
2024-02-26T07:08:23.538Z,6.30
2024-02-26T07:10:51.662Z,6.40
2024-02-26T07:13:19.797Z,6.50
2024-02-26T07:15:47.821Z,6.50
2024-02-26T07:18:15.965Z,6.50
2024-02-26T07:20:44.144Z,6.50
2024-02-26T07:23:12.210Z,6.60
2024-02-26T07:25:42.018Z,6.60
2024-02-26T07:28:10.118Z,6.60
2024-02-26T07:30:38.216Z,6.60
2024-02-26T07:33:06.636Z,6.70
2024-02-26T07:35:34.748Z,6.70
2024-02-26T07:38:02.857Z,6.70
2024-02-26T07:40:30.858Z,6.70
2024-02-26T07:43:00.369Z,6.70
2024-02-26T07:45:28.808Z,6.80
2024-02-26T07:47:57.061Z,6.80
2024-02-26T07:50:25.264Z,6.80
2024-02-26T07:52:54.060Z,6.90
2024-02-26T07:55:23.307Z,6.90
2024-02-26T07:57:51.473Z,6.90
2024-02-26T08:00:22.022Z,6.90
2024-02-26T08:02:50.142Z,7.00
2024-02-26T08:05:18.638Z,7.00
2024-02-26T08:07:46.707Z,7.00
2024-02-26T08:10:14.950Z,7.00
2024-02-26T08:12:43.174Z,7.10
2024-02-26T08:15:12.499Z,7.10
2024-02-26T08:17:42.045Z,7.20
2024-02-26T08:20:10.884Z,7.30
2024-02-26T08:22:40.256Z,7.30
2024-02-26T08:25:10.315Z,7.50
2024-02-26T08:27:38.412Z,7.60
2024-02-26T08:30:08.498Z,7.80
2024-02-26T08:32:36.497Z,7.90
2024-02-26T08:35:06.925Z,8.00
2024-02-26T08:37:34.883Z,8.10
2024-02-26T08:40:06.319Z,8.20
2024-02-26T08:42:35.602Z,8.30
2024-02-26T08:45:04.751Z,8.40
2024-02-26T08:47:38.327Z,8.60
2024-02-26T08:50:10.635Z,8.70
2024-02-26T08:52:38.882Z,8.70
2024-02-26T08:55:09.849Z,8.80
2024-02-26T08:57:38.021Z,8.70
2024-02-26T09:00:07.130Z,8.70
2024-02-26T09:02:35.229Z,8.80
2024-02-26T09:05:03.647Z,8.80
2024-02-26T09:07:33.125Z,8.80
2024-02-26T09:10:01.189Z,8.80
2024-02-26T09:12:29.333Z,8.90
2024-02-26T09:14:58.556Z,9.00
2024-02-26T09:17:26.586Z,9.20
2024-02-26T09:19:54.862Z,9.20
2024-02-26T09:22:23.910Z,9.30
2024-02-26T09:24:54.652Z,9.40
2024-02-26T09:27:23.451Z,9.50
2024-02-26T09:29:51.548Z,9.50
2024-02-26T09:32:20.025Z,9.60
2024-02-26T09:34:48.066Z,9.60
2024-02-26T09:37:21.600Z,9.70
2024-02-26T09:39:50.600Z,9.70
2024-02-26T09:42:21.438Z,9.70
2024-02-26T09:44:51.839Z,9.70
2024-02-26T09:47:21.558Z,9.80
2024-02-26T09:49:54.194Z,9.80
2024-02-26T09:52:23.026Z,9.90
2024-02-26T09:54:51.222Z,9.90
2024-02-26T09:57:20.652Z,9.90
2024-02-26T09:59:50.435Z,9.90
2024-02-26T10:02:21.778Z,9.80
2024-02-26T10:04:52.587Z,9.80
2024-02-26T10:07:21.853Z,9.80
2024-02-26T10:09:50.371Z,9.80
2024-02-26T10:12:20.324Z,9.80
2024-02-26T10:14:48.517Z,9.90
2024-02-26T10:17:17.192Z,10.00
2024-02-26T10:19:45.375Z,10.00
2024-02-26T10:22:13.486Z,10.10
2024-02-26T10:24:41.486Z,10.20
2024-02-26T10:27:11.313Z,10.20
2024-02-26T10:29:41.429Z,10.30
2024-02-26T10:32:10.466Z,10.40
2024-02-26T10:34:39.217Z,10.40
2024-02-26T10:37:07.840Z,10.50
2024-02-26T10:39:38.551Z,10.60
2024-02-26T10:42:11.030Z,10.70
2024-02-26T10:44:44.020Z,10.80
2024-02-26T10:47:12.080Z,10.90
2024-02-26T10:49:40.404Z,11.00
2024-02-26T10:52:09.145Z,11.10
2024-02-26T10:54:41.302Z,11.10
2024-02-26T10:57:10.782Z,11.10
2024-02-26T10:59:41.595Z,11.10
2024-02-26T11:02:12.408Z,11.20
2024-02-26T11:04:41.576Z,11.20
2024-02-26T11:07:11.913Z,11.20
2024-02-26T11:09:44.823Z,11.30
2024-02-26T11:12:14.844Z,11.40
2024-02-26T11:14:48.219Z,11.40
2024-02-26T11:17:18.780Z,11.50
2024-02-26T11:19:48.434Z,11.50
2024-02-26T11:22:21.487Z,11.50
2024-02-26T11:24:53.313Z,11.50
2024-02-26T11:27:23.946Z,11.50
2024-02-26T11:29:55.882Z,11.60
2024-02-26T11:32:24.163Z,11.70
2024-02-26T11:34:52.480Z,11.70
2024-02-26T11:37:21.821Z,11.80
2024-02-26T11:39:49.810Z,11.90
2024-02-26T11:42:19.435Z,11.90
2024-02-26T11:44:47.623Z,12.00
2024-02-26T11:47:32.720Z,12.00
2024-02-26T11:50:01.134Z,12.00
2024-02-26T11:52:29.161Z,12.00
2024-02-26T11:55:05.588Z,12.10
2024-02-26T11:57:46.870Z,12.00
2024-02-26T12:00:23.946Z,12.10
2024-02-26T12:03:02.602Z,12.20
2024-02-26T12:05:35.422Z,12.20
2024-02-26T12:08:09.071Z,12.30
2024-02-26T12:10:39.931Z,12.40
2024-02-26T12:13:09.891Z,12.40
2024-02-26T12:15:40.582Z,12.50
2024-02-26T12:18:11.777Z,12.50
2024-02-26T12:20:40.295Z,12.50
2024-02-26T12:23:08.801Z,12.60
2024-02-26T12:25:36.823Z,12.60
2024-02-26T12:28:05.064Z,12.60
2024-02-26T12:30:33.751Z,12.70
2024-02-26T12:33:02.216Z,12.80
2024-02-26T12:35:33.370Z,12.80
2024-02-26T12:38:03.984Z,13.00
2024-02-26T12:40:33.022Z,13.00
2024-02-26T12:43:01.105Z,13.10
2024-02-26T12:45:29.937Z,13.20
2024-02-26T12:47:58.572Z,13.20
2024-02-26T12:50:27.084Z,13.20
2024-02-26T12:52:56.809Z,13.30
2024-02-26T12:55:25.008Z,13.20
2024-02-26T12:57:55.332Z,13.20
2024-02-26T13:00:29.551Z,13.10
2024-02-26T13:02:58.606Z,13.10
2024-02-26T13:05:27.678Z,13.10
2024-02-26T13:07:57.861Z,13.10
2024-02-26T13:10:26.426Z,13.10
2024-02-26T13:12:55.042Z,13.10
2024-02-26T13:15:24.110Z,13.10
2024-02-26T13:17:54.609Z,13.10
2024-02-26T13:20:32.647Z,13.10
2024-02-26T13:23:07.648Z,13.00
2024-02-26T13:25:37.271Z,13.00
2024-02-26T13:28:11.049Z,13.00
2024-02-26T13:30:39.226Z,13.10
2024-02-26T13:33:11.917Z,13.20
2024-02-26T13:35:41.116Z,13.20
2024-02-26T13:38:12.341Z,13.20
2024-02-26T13:40:41.298Z,13.20
2024-02-26T13:43:09.550Z,13.20
2024-02-26T13:45:38.725Z,13.20
2024-02-26T13:48:08.291Z,13.20
2024-02-26T13:50:37.612Z,13.20
2024-02-26T13:53:05.977Z,13.20
2024-02-26T13:55:35.645Z,13.10
2024-02-26T13:58:04.989Z,13.20
2024-02-26T14:00:35.408Z,13.10
2024-02-26T14:03:05.054Z,13.10
2024-02-26T14:05:33.244Z,13.10
2024-02-26T14:08:02.311Z,13.10
2024-02-26T14:10:31.528Z,13.10
2024-02-26T14:13:01.727Z,13.10
2024-02-26T14:15:30.757Z,13.20
2024-02-26T14:17:59.198Z,13.20
2024-02-26T14:20:28.266Z,13.20
2024-02-26T14:22:56.599Z,13.10
2024-02-26T14:25:28.097Z,13.10
2024-02-26T14:27:59.431Z,13.10
2024-02-26T14:30:29.468Z,13.10
2024-02-26T14:32:57.808Z,13.10
2024-02-26T14:35:26.162Z,13.10
2024-02-26T14:37:55.235Z,13.10
2024-02-26T14:40:23.707Z,13.10
2024-02-26T14:42:52.231Z,13.10
2024-02-26T14:45:20.379Z,13.10
2024-02-26T14:47:49.889Z,13.00
2024-02-26T14:50:18.154Z,12.90
2024-02-26T14:52:46.234Z,12.90
2024-02-26T14:55:14.654Z,12.90
2024-02-26T14:57:42.776Z,12.80
2024-02-26T15:00:12.324Z,12.80
2024-02-26T15:02:40.336Z,12.80
2024-02-26T15:05:12.296Z,12.80
2024-02-26T15:07:41.556Z,12.80
2024-02-26T15:10:11.002Z,12.70
2024-02-26T15:12:39.284Z,12.60
2024-02-26T15:15:08.757Z,12.60
2024-02-26T15:17:37.405Z,12.60
2024-02-26T15:20:08.821Z,12.60
2024-02-26T15:22:39.431Z,12.50
2024-02-26T15:25:10.288Z,12.50
2024-02-26T15:27:39.490Z,12.40
2024-02-26T15:30:08.668Z,12.40
2024-02-26T15:32:37.589Z,12.40
2024-02-26T15:35:06.508Z,12.40
2024-02-26T15:37:36.396Z,12.40
2024-02-26T15:40:08.345Z,12.40
2024-02-26T15:42:36.625Z,12.40
2024-02-26T15:45:04.966Z,12.40
2024-02-26T15:47:33.434Z,12.40
2024-02-26T15:50:02.864Z,12.30
2024-02-26T15:52:31.162Z,12.30
2024-02-26T15:54:59.135Z,12.30
2024-02-26T15:57:28.691Z,12.20
2024-02-26T16:00:01.659Z,12.30
2024-02-26T16:02:29.892Z,12.30
2024-02-26T16:04:58.839Z,12.30
2024-02-26T16:07:33.446Z,12.20
2024-02-26T16:10:04.388Z,12.20
2024-02-26T16:12:39.200Z,12.20
2024-02-26T16:15:10.262Z,12.10
2024-02-26T16:17:47.743Z,12.00
2024-02-26T16:20:17.384Z,11.90
2024-02-26T16:22:45.374Z,11.90
2024-02-26T16:25:13.713Z,11.80
2024-02-26T16:27:43.363Z,11.80
2024-02-26T16:30:12.530Z,11.70
2024-02-26T16:32:42.797Z,11.70
2024-02-26T16:35:12.868Z,11.60
2024-02-26T16:37:41.238Z,11.60
2024-02-26T16:40:11.070Z,11.60
2024-02-26T16:42:39.645Z,11.50
2024-02-26T16:45:10.108Z,11.50
2024-02-26T16:47:38.440Z,11.50
2024-02-26T16:50:07.533Z,11.40
2024-02-26T16:52:35.713Z,11.40
2024-02-26T16:55:06.601Z,11.30
2024-02-26T16:57:35.105Z,11.30
2024-02-26T17:00:04.371Z,11.30
2024-02-26T17:02:33.868Z,11.20
2024-02-26T17:05:01.994Z,11.20
2024-02-26T17:07:30.047Z,11.20
2024-02-26T17:09:58.259Z,11.20
2024-02-26T17:12:26.483Z,11.20
2024-02-26T17:14:54.661Z,11.20
2024-02-26T17:17:23.154Z,11.20
2024-02-26T17:19:52.522Z,11.20
2024-02-26T17:22:20.723Z,11.10
2024-02-26T17:24:49.101Z,11.10
2024-02-26T17:27:17.633Z,11.10
2024-02-26T17:29:45.572Z,11.00
2024-02-26T17:32:16.125Z,11.00
2024-02-26T17:34:45.152Z,11.00
2024-02-26T17:37:14.803Z,11.00
2024-02-26T17:39:43.200Z,10.90
2024-02-26T17:42:11.526Z,10.90
2024-02-26T17:44:40.099Z,10.80
2024-02-26T17:47:08.838Z,10.80
2024-02-26T17:49:37.142Z,10.80
2024-02-26T17:52:06.126Z,10.70
2024-02-26T17:54:37.148Z,10.70
2024-02-26T17:57:07.217Z,10.60
2024-02-26T17:59:35.628Z,10.60
2024-02-26T18:02:04.092Z,10.60
2024-02-26T18:04:32.297Z,10.60
2024-02-26T18:07:01.740Z,10.50
2024-02-26T18:09:30.118Z,10.50
2024-02-26T18:12:01.127Z,10.50
2024-02-26T18:14:29.293Z,10.50
2024-02-26T18:16:58.698Z,10.50
2024-02-26T18:19:26.741Z,10.40
2024-02-26T18:21:55.118Z,10.40
2024-02-26T18:24:23.254Z,10.40
2024-02-26T18:26:53.517Z,10.40
2024-02-26T18:29:23.622Z,10.40
2024-02-26T18:31:52.115Z,10.40
2024-02-26T18:34:20.982Z,10.40
2024-02-26T18:36:49.080Z,10.30
2024-02-26T18:39:17.470Z,10.30
2024-02-26T18:41:45.628Z,10.30
2024-02-26T18:44:15.737Z,10.30
2024-02-26T18:46:47.209Z,10.30
2024-02-26T18:49:15.633Z,10.30
2024-02-26T18:51:44.340Z,10.30
2024-02-26T18:54:12.684Z,10.30
2024-02-26T18:56:40.912Z,10.20
2024-02-26T18:59:09.881Z,10.20
2024-02-26T19:01:39.122Z,10.30
2024-02-26T19:04:08.794Z,10.30
2024-02-26T19:06:39.976Z,10.30
2024-02-26T19:09:09.449Z,10.30
2024-02-26T19:11:37.803Z,10.30
2024-02-26T19:14:07.077Z,10.30
2024-02-26T19:16:36.092Z,10.20
2024-02-26T19:19:05.032Z,10.10
2024-02-26T19:21:34.576Z,10.10
2024-02-26T19:24:04.155Z,10.10
2024-02-26T19:26:32.887Z,10.10
2024-02-26T19:29:04.316Z,10.10
2024-02-26T19:31:34.123Z,10.10
2024-02-26T19:34:02.588Z,10.10
2024-02-26T19:36:30.814Z,10.00
2024-02-26T19:39:00.265Z,9.90
2024-02-26T19:41:28.278Z,9.90
2024-02-26T19:43:56.284Z,9.80
2024-02-26T19:46:24.702Z,9.80
2024-02-26T19:48:53.385Z,9.80
2024-02-26T19:51:21.549Z,9.80
2024-02-26T19:53:49.576Z,9.80
2024-02-26T19:56:19.630Z,9.80
2024-02-26T19:58:47.568Z,9.80
2024-02-26T20:01:15.822Z,9.70
2024-02-26T20:03:49.502Z,9.70
2024-02-26T20:06:18.316Z,9.80
2024-02-26T20:08:46.491Z,9.70
2024-02-26T20:11:19.549Z,9.70
2024-02-26T20:13:47.566Z,9.70
2024-02-26T20:16:15.509Z,9.70
2024-02-26T20:18:43.604Z,9.70
2024-02-26T20:21:12.160Z,9.60
2024-02-26T20:23:40.111Z,9.50
2024-02-26T20:26:08.118Z,9.40
2024-02-26T20:28:37.795Z,9.40
2024-02-26T20:31:06.721Z,9.30
2024-02-26T20:33:37.122Z,9.30
2024-02-26T20:36:06.024Z,9.20
2024-02-26T20:38:34.188Z,9.20
2024-02-26T20:41:02.407Z,9.10
2024-02-26T20:43:30.543Z,9.10
2024-02-26T20:46:00.049Z,9.00
2024-02-26T20:48:28.194Z,9.00
2024-02-26T20:50:56.446Z,8.90
2024-02-26T20:53:24.511Z,8.90
2024-02-26T20:55:53.629Z,8.90
2024-02-26T20:58:21.678Z,8.90
2024-02-26T21:00:50.343Z,8.90
2024-02-26T21:03:20.036Z,8.90
2024-02-26T21:05:48.114Z,8.90
2024-02-26T21:08:23.752Z,8.90
2024-02-26T21:10:56.962Z,8.90
2024-02-26T21:13:25.177Z,8.80
2024-02-26T21:15:53.327Z,8.80
2024-02-26T21:18:23.642Z,8.80
2024-02-26T21:20:54.071Z,8.80
2024-02-26T21:23:22.312Z,8.80
2024-02-26T21:25:50.616Z,8.90
2024-02-26T21:28:19.557Z,8.90
2024-02-26T21:30:48.188Z,8.80
2024-02-26T21:33:16.284Z,8.80
2024-02-26T21:35:45.597Z,8.80
2024-02-26T21:38:13.692Z,8.70
2024-02-26T21:40:41.656Z,8.70
2024-02-26T21:43:09.804Z,8.70
2024-02-26T21:45:38.365Z,8.70
2024-02-26T21:48:06.990Z,8.70
2024-02-26T21:50:35.258Z,8.70
2024-02-26T21:53:04.920Z,8.60
2024-02-26T21:55:32.976Z,8.60
2024-02-26T21:58:00.967Z,8.50
2024-02-26T22:00:28.993Z,8.50
2024-02-26T22:02:57.068Z,8.50
2024-02-26T22:05:25.028Z,8.40
2024-02-26T22:07:53.078Z,8.40
2024-02-26T22:10:22.656Z,8.40
2024-02-26T22:12:50.662Z,8.40
2024-02-26T22:15:20.843Z,8.40
2024-02-26T22:17:49.303Z,8.30
2024-02-26T22:20:17.484Z,8.40
2024-02-26T22:22:45.400Z,8.30
2024-02-26T22:25:15.018Z,8.40
2024-02-26T22:27:44.525Z,8.40
2024-02-26T22:30:13.788Z,8.30
2024-02-26T22:32:41.865Z,8.30
2024-02-26T22:35:10.478Z,8.30
2024-02-26T22:37:39.178Z,8.30
2024-02-26T22:40:08.544Z,8.20
2024-02-26T22:42:37.062Z,8.20
2024-02-26T22:45:07.883Z,8.20
2024-02-26T22:47:35.965Z,8.20
2024-02-26T22:50:05.278Z,8.20
2024-02-26T22:52:33.447Z,8.10
2024-02-26T22:55:01.607Z,8.10
2024-02-26T22:57:29.804Z,8.10
2024-02-26T22:59:58.080Z,8.10
2024-02-26T23:02:27.632Z,8.10
2024-02-26T23:04:55.542Z,8.10
2024-02-26T23:07:23.566Z,8.00
2024-02-26T23:09:51.617Z,8.10
2024-02-26T23:12:19.599Z,8.00
2024-02-26T23:14:47.581Z,8.00
2024-02-26T23:17:15.760Z,7.90
2024-02-26T23:19:45.142Z,7.90
2024-02-26T23:22:13.209Z,7.90
2024-02-26T23:24:41.345Z,7.90
2024-02-26T23:27:09.529Z,7.80
2024-02-26T23:29:39.060Z,7.80
2024-02-26T23:32:07.626Z,7.80
2024-02-26T23:34:35.765Z,7.80
2024-02-26T23:37:05.242Z,7.80
2024-02-26T23:39:34.080Z,7.80
2024-02-26T23:42:02.292Z,7.80
2024-02-26T23:44:30.345Z,7.80
2024-02-26T23:46:58.353Z,7.80
2024-02-26T23:49:26.382Z,7.80
2024-02-26T23:51:54.942Z,7.80
2024-02-26T23:54:24.343Z,7.80
2024-02-26T23:56:52.370Z,7.70
2024-02-26T23:59:20.983Z,7.80
